Time;durP1;ratioP1;P1;durP2;ratioP2;P2;SDS_P1;SDS_P2;PMS_P1;PMS_P2;Temp;Humidity;BMP_temperature;BMP_pressure;BME280_temperature;BME280_humidity;BME280_pressure;Samples;Min_cycle;Max_cycle;Signal;HPM_P1;HPM_P2
2023/06/13 00:01:35;;;;;;;5.23;4.73;;;19.70;69.80;;;;;;5093579;28;20557;-69
2023/06/13 00:04:02;;;;;;;6.20;5.20;;;19.70;70.30;;;;;;5093838;28;20170;-69
2023/06/13 00:06:29;;;;;;;5.50;5.00;;;19.70;70.20;;;;;;5093638;28;20776;-69
2023/06/13 00:08:56;;;;;;;4.87;4.47;;;19.80;70.30;;;;;;5093576;28;20438;-69
2023/06/13 00:11:22;;;;;;;6.40;5.20;;;19.70;70.20;;;;;;5093183;28;20603;-68
2023/06/13 00:13:47;;;;;;;6.70;4.90;;;19.70;70.60;;;;;;5092876;28;20502;-69
2023/06/13 00:16:14;;;;;;;5.43;4.43;;;19.70;70.10;;;;;;5093262;28;20173;-69
2023/06/13 00:18:39;;;;;;;5.30;4.80;;;19.70;70.60;;;;;;5093241;28;20157;-69
2023/06/13 00:21:06;;;;;;;5.50;5.03;;;19.60;70.80;;;;;;5093337;28;20882;-69
2023/06/13 00:23:32;;;;;;;5.10;4.60;;;19.60;71.20;;;;;;5093064;28;20161;-69
2023/06/13 00:25:57;;;;;;;5.53;4.97;;;19.50;71.70;;;;;;5091569;28;20404;-69
2023/06/13 00:28:23;;;;;;;6.97;6.37;;;19.40;72.10;;;;;;5091727;28;20516;-68
2023/06/13 00:30:48;;;;;;;5.63;5.00;;;19.50;72.50;;;;;;5093005;28;20189;-69
2023/06/13 00:33:17;;;;;;;6.17;5.00;;;19.40;72.60;;;;;;5093110;28;20169;-68
2023/06/13 00:35:44;;;;;;;5.50;5.00;;;19.40;72.60;;;;;;5093530;28;20172;-69
2023/06/13 00:38:10;;;;;;;6.93;5.10;;;19.30;73.00;;;;;;5092833;28;20734;-68
2023/06/13 00:40:36;;;;;;;5.97;5.37;;;19.20;72.70;;;;;;5092918;28;20457;-68
2023/06/13 00:43:02;;;;;;;7.10;4.90;;;19.10;73.10;;;;;;5092551;28;20423;-68
2023/06/13 00:45:29;;;;;;;6.40;5.27;;;19.10;74.20;;;;;;5092551;28;20494;-68
2023/06/13 00:48:05;;;;;;;6.77;4.90;;;19.00;74.40;;;;;;5092768;28;20161;-68
2023/06/13 00:50:36;;;;;;;5.80;5.20;;;18.90;75.10;;;;;;5092002;28;20435;-68
2023/06/13 00:53:11;;;;;;;5.33;4.83;;;18.80;75.20;;;;;;5092713;28;20420;-68
2023/06/13 00:55:37;;;;;;;5.60;5.10;;;18.80;76.60;;;;;;5092995;28;20384;-68
2023/06/13 00:58:06;;;;;;;5.80;5.30;;;18.80;77.00;;;;;;5092212;28;20969;-68
2023/06/13 01:00:33;;;;;;;5.57;5.07;;;18.80;77.00;;;;;;5092615;28;20403;-68
2023/06/13 01:02:59;;;;;;;6.60;5.57;;;18.80;77.30;;;;;;5092679;28;20843;-68
2023/06/13 01:05:28;;;;;;;5.60;5.10;;;18.70;77.90;;;;;;5092428;28;20815;-69
2023/06/13 01:07:57;;;;;;;4.60;4.20;;;18.80;77.90;;;;;;5092744;28;20896;-68
2023/06/13 01:10:27;;;;;;;5.10;4.70;;;18.80;78.00;;;;;;5074135;28;20463;-68
2023/06/13 01:13:00;;;;;;;5.33;4.47;;;18.70;78.80;;;;;;5091881;28;20796;-68
2023/06/13 01:15:32;;;;;;;5.03;4.63;;;18.60;79.00;;;;;;5077372;28;20404;-69
2023/06/13 01:18:01;;;;;;;5.77;4.93;;;18.60;79.90;;;;;;5071999;28;20385;-68
2023/06/13 01:20:32;;;;;;;5.67;5.17;;;18.60;79.70;;;;;;5072253;28;20412;-68
2023/06/13 01:23:35;;;;;;;7.23;5.57;;;18.60;80.20;;;;;;5071851;28;20424;-68
2023/06/13 01:26:14;;;;;;;5.27;4.77;;;18.50;80.80;;;;;;5072225;28;20786;-68
2023/06/13 01:28:43;;;;;;;5.83;5.33;;;18.40;81.30;;;;;;5082727;28;20492;-68
2023/06/13 01:31:12;;;;;;;5.40;4.90;;;18.40;81.70;;;;;;5092071;28;20463;-68
2023/06/13 01:33:37;;;;;;;5.50;5.00;;;18.40;82.20;;;;;;5091969;28;20400;-68
2023/06/13 01:36:03;;;;;;;6.50;4.87;;;18.50;82.40;;;;;;5092093;28;20915;-68
2023/06/13 01:38:30;;;;;;;4.90;4.40;;;18.50;82.20;;;;;;5092875;28;20695;-68
2023/06/13 01:40:56;;;;;;;5.37;4.87;;;18.50;82.80;;;;;;5092076;28;20414;-68
2023/06/13 01:43:21;;;;;;;5.17;4.77;;;18.30;83.10;;;;;;5094397;28;20411;-68
2023/06/13 01:45:49;;;;;;;5.27;4.77;;;18.30;83.60;;;;;;5096479;28;20256;-68
2023/06/13 01:48:34;;;;;;;5.47;4.97;;;18.30;84.10;;;;;;5096435;28;20169;-68
2023/06/13 01:51:28;;;;;;;4.90;4.50;;;18.20;84.90;;;;;;5096011;28;20443;-70
2023/06/13 01:54:02;;;;;;;5.90;5.30;;;18.20;85.90;;;;;;5096346;28;20547;-69
2023/06/13 01:56:31;;;;;;;5.73;5.10;;;18.20;85.50;;;;;;5096376;28;20880;-69
2023/06/13 01:58:59;;;;;;;5.93;5.30;;;18.30;85.80;;;;;;5095352;28;20493;-69
2023/06/13 02:01:32;;;;;;;5.43;4.93;;;18.30;85.80;;;;;;5096799;28;20558;-69
2023/06/13 02:03:58;;;;;;;4.53;3.93;;;18.30;86.30;;;;;;5096280;28;20380;-69
2023/06/13 02:06:24;;;;;;;5.07;4.57;;;18.30;86.10;;;;;;5095718;28;20415;-69
2023/06/13 02:08:49;;;;;;;5.40;4.90;;;18.20;85.30;;;;;;5095566;28;20831;-69
2023/06/13 02:11:15;;;;;;;4.60;4.20;;;18.20;86.80;;;;;;5095884;28;20213;-68
2023/06/13 02:13:40;;;;;;;14.33;5.37;;;18.20;86.70;;;;;;5095272;28;20180;-69
2023/06/13 02:16:06;;;;;;;4.43;3.97;;;18.10;87.40;;;;;;5095909;28;20180;-69
2023/06/13 02:18:31;;;;;;;5.40;4.60;;;18.00;88.20;;;;;;5096655;28;20166;-68
2023/06/13 02:20:57;;;;;;;5.13;4.63;;;17.90;87.00;;;;;;5096169;28;20180;-69
2023/06/13 02:23:26;;;;;;;4.93;4.20;;;17.90;87.80;;;;;;5096279;28;20165;-68
2023/06/13 02:25:52;;;;;;;6.67;4.40;;;17.90;88.00;;;;;;5077696;28;20231;-69
2023/06/13 02:28:18;;;;;;;4.80;4.30;;;17.90;88.10;;;;;;5094308;28;20787;-69
2023/06/13 02:30:44;;;;;;;6.63;4.33;;;18.00;88.20;;;;;;5095519;28;20455;-68
2023/06/13 02:33:13;;;;;;;5.57;5.07;;;18.10;88.10;;;;;;5095979;28;20895;-68
2023/06/13 02:35:38;;;;;;;7.70;4.53;;;18.10;88.30;;;;;;5093407;28;20165;-69
2023/06/13 02:38:06;;;;;;;7.00;4.60;;;18.10;87.80;;;;;;5095313;28;20407;-68
2023/06/13 02:40:32;;;;;;;4.33;3.90;;;18.00;88.10;;;;;;5095107;28;20203;-68
2023/06/13 02:42:58;;;;;;;5.37;4.87;;;18.00;88.10;;;;;;5094575;28;20419;-69
2023/06/13 02:45:23;;;;;;;4.83;4.43;;;18.00;87.80;;;;;;5091880;28;20404;-69
2023/06/13 02:47:50;;;;;;;9.30;5.43;;;18.00;87.50;;;;;;5095607;28;20166;-69
2023/06/13 02:50:16;;;;;;;4.37;3.97;;;18.00;87.90;;;;;;5095605;28;20289;-68
2023/06/13 02:52:42;;;;;;;5.03;4.53;;;18.00;88.50;;;;;;5094895;28;20431;-69
2023/06/13 02:55:08;;;;;;;4.80;4.30;;;18.00;87.40;;;;;;5094956;28;20581;-69
2023/06/13 02:57:36;;;;;;;6.90;4.80;;;18.10;87.90;;;;;;5094546;28;20546;-67
2023/06/13 03:00:04;;;;;;;5.30;4.10;;;18.10;87.30;;;;;;5094834;28;20486;-69
2023/06/13 03:02:31;;;;;;;4.57;4.17;;;18.10;87.50;;;;;;5077099;28;20522;-68
2023/06/13 03:04:57;;;;;;;6.80;4.90;;;18.00;87.30;;;;;;5095081;28;20837;-68
2023/06/13 03:07:23;;;;;;;7.47;4.90;;;17.80;87.90;;;;;;5095291;28;20406;-68
2023/06/13 03:09:49;;;;;;;6.00;4.77;;;17.80;87.90;;;;;;5094831;28;20515;-68
2023/06/13 03:12:15;;;;;;;6.30;4.37;;;17.80;87.90;;;;;;5068913;28;20439;-69
2023/06/13 03:14:41;;;;;;;6.70;4.60;;;17.80;87.60;;;;;;5073935;28;20188;-69
2023/06/13 03:17:06;;;;;;;4.67;4.27;;;17.80;87.50;;;;;;5074227;28;20190;-69
2023/06/13 03:19:32;;;;;;;5.13;4.13;;;17.70;87.90;;;;;;5074425;28;20436;-69
2023/06/13 03:21:57;;;;;;;7.13;4.23;;;17.80;87.90;;;;;;5074173;28;20243;-69
2023/06/13 03:24:23;;;;;;;4.97;4.17;;;17.70;87.80;;;;;;5074183;28;20246;-69
2023/06/13 03:26:48;;;;;;;4.70;4.30;;;17.70;87.80;;;;;;5074237;28;20186;-68
2023/06/13 03:29:14;;;;;;;5.13;4.63;;;17.70;88.10;;;;;;5090112;28;20184;-69
2023/06/13 03:31:40;;;;;;;6.30;5.20;;;17.70;87.80;;;;;;5093775;28;20209;-69
2023/06/13 03:34:06;;;;;;;5.67;4.97;;;17.90;87.90;;;;;;5094172;28;20173;-69
2023/06/13 03:36:34;;;;;;;4.10;3.70;;;17.80;87.80;;;;;;5093898;28;20395;-69
2023/06/13 03:39:00;;;;;;;4.60;4.10;;;17.80;87.00;;;;;;5093855;28;20174;-69
2023/06/13 03:41:26;;;;;;;5.60;4.40;;;17.80;87.00;;;;;;5094031;28;20423;-69
2023/06/13 03:43:51;;;;;;;4.50;4.07;;;17.80;87.30;;;;;;5093434;28;20245;-69
2023/06/13 03:46:17;;;;;;;6.50;4.50;;;17.80;87.70;;;;;;5093812;28;20168;-69
2023/06/13 03:48:43;;;;;;;6.30;4.80;;;17.90;87.70;;;;;;5093571;28;20226;-68
2023/06/13 03:51:08;;;;;;;5.50;4.23;;;17.70;87.60;;;;;;5094894;28;20203;-68
2023/06/13 03:53:34;;;;;;;5.00;4.23;;;17.70;87.80;;;;;;5094526;28;20244;-68
2023/06/13 03:56:00;;;;;;;4.37;3.97;;;17.70;87.70;;;;;;5093614;28;20234;-67
2023/06/13 03:58:26;;;;;;;5.90;4.43;;;17.80;88.30;;;;;;5093374;28;20166;-69
2023/06/13 04:00:54;;;;;;;5.40;4.50;;;18.00;87.80;;;;;;5093698;28;20400;-68
2023/06/13 04:03:19;;;;;;;5.13;3.87;;;18.00;88.90;;;;;;5093419;28;20172;-68
2023/06/13 04:05:45;;;;;;;5.33;4.83;;;17.90;88.00;;;;;;5092445;28;20411;-68
2023/06/13 04:08:11;;;;;;;6.77;4.20;;;17.80;88.10;;;;;;5075067;28;20186;-68
2023/06/13 04:10:37;;;;;;;4.60;3.93;;;17.70;88.30;;;;;;5073101;28;20186;-69
2023/06/13 04:13:02;;;;;;;5.23;3.80;;;17.70;88.90;;;;;;5073268;28;20431;-68
2023/06/13 04:15:28;;;;;;;6.17;4.20;;;17.70;89.00;;;;;;5073020;28;20162;-69
2023/06/13 04:17:54;;;;;;;6.43;4.60;;;17.70;89.20;;;;;;5072840;28;20508;-69
2023/06/13 04:20:21;;;;;;;4.50;3.87;;;17.70;89.40;;;;;;5089496;28;20407;-68
2023/06/13 04:22:47;;;;;;;5.87;4.30;;;17.80;89.50;;;;;;5074709;28;20189;-68
2023/06/13 04:25:13;;;;;;;5.20;4.60;;;17.70;88.70;;;;;;5093263;28;20406;-68
2023/06/13 04:27:39;;;;;;;5.20;4.40;;;17.70;90.00;;;;;;5091818;28;20438;-67
2023/06/13 04:30:06;;;;;;;4.93;4.40;;;17.80;89.70;;;;;;5092704;28;20196;-68
2023/06/13 04:32:33;;;;;;;5.47;3.80;;;17.70;89.70;;;;;;5093126;28;20211;-68
2023/06/13 04:34:59;;;;;;;3.90;3.60;;;17.40;89.50;;;;;;5093984;28;20412;-68
2023/06/13 04:37:30;;;;;;;4.73;4.20;;;17.40;89.60;;;;;;5092471;28;20402;-68
2023/06/13 04:39:56;;;;;;;8.60;4.33;;;17.50;89.00;;;;;;5092539;28;20546;-68
2023/06/13 04:42:29;;;;;;;4.30;4.00;;;17.50;88.70;;;;;;5073931;28;20423;-68
2023/06/13 04:44:57;;;;;;;5.97;4.30;;;17.60;89.10;;;;;;5071891;28;20162;-68
2023/06/13 04:47:30;;;;;;;4.53;4.07;;;17.60;88.00;;;;;;5072479;28;20903;-69
2023/06/13 04:49:58;;;;;;;4.63;4.03;;;17.60;89.20;;;;;;5072505;28;20721;-68
2023/06/13 04:52:27;;;;;;;4.43;3.50;;;17.60;88.40;;;;;;5072357;28;20424;-68
2023/06/13 04:54:54;;;;;;;5.97;4.47;;;17.70;88.70;;;;;;5072930;28;20396;-68
2023/06/13 04:57:20;;;;;;;6.13;4.57;;;17.80;88.90;;;;;;5072479;28;20400;-68
2023/06/13 04:59:46;;;;;;;6.73;4.13;;;17.70;87.80;;;;;;5071662;28;20415;-68
2023/06/13 05:02:12;;;;;;;4.63;4.03;;;17.70;88.30;;;;;;5072197;28;20416;-68
2023/06/13 05:04:38;;;;;;;6.23;3.67;;;17.80;88.40;;;;;;5072395;28;20469;-68
2023/06/13 05:07:06;;;;;;;5.07;3.67;;;17.90;87.20;;;;;;5072019;28;20173;-68
2023/06/13 05:09:32;;;;;;;6.43;4.33;;;17.70;86.20;;;;;;5074555;28;20178;-68
2023/06/13 05:11:57;;;;;;;4.53;3.80;;;17.70;87.30;;;;;;5071813;28;20824;-68
2023/06/13 05:14:23;;;;;;;5.17;3.80;;;17.80;88.30;;;;;;5071534;28;20418;-68
2023/06/13 05:16:49;;;;;;;6.00;3.80;;;18.00;86.60;;;;;;5070964;28;20166;-68
2023/06/13 05:19:15;;;;;;;4.40;3.60;;;17.90;86.30;;;;;;5071747;28;20185;-70
2023/06/13 05:21:40;;;;;;;6.10;3.87;;;18.10;85.40;;;;;;5082988;28;20735;-69
2023/06/13 05:24:09;;;;;;;5.10;4.00;;;18.20;83.40;;;;;;5080590;28;20448;-68
2023/06/13 05:26:35;;;;;;;5.10;3.70;;;18.10;82.90;;;;;;5081264;28;20185;-69
2023/06/13 05:29:04;;;;;;;3.90;3.50;;;18.00;83.50;;;;;;5081369;28;20444;-68
2023/06/13 05:31:31;;;;;;;6.17;4.10;;;17.90;83.40;;;;;;5103441;22;20922;-70
2023/06/13 05:33:56;;;;;;;7.53;4.57;;;18.00;83.00;;;;;;5072685;28;20487;-69
2023/06/13 05:36:22;;;;;;;4.07;3.67;;;18.20;82.10;;;;;;5072843;28;20420;-69
2023/06/13 05:38:48;;;;;;;6.20;4.27;;;18.40;81.90;;;;;;5072760;28;20166;-70
2023/06/13 05:41:13;;;;;;;3.63;3.30;;;18.30;80.30;;;;;;5072639;28;20215;-70
2023/06/13 05:43:40;;;;;;;5.33;3.70;;;18.30;80.10;;;;;;5071491;28;20261;-68
2023/06/13 05:46:05;;;;;;;7.53;4.00;;;18.50;80.10;;;;;;5054391;28;20201;-69
2023/06/13 05:48:31;;;;;;;4.57;3.70;;;18.50;79.90;;;;;;5072605;28;20424;-69
2023/06/13 05:50:58;;;;;;;3.60;3.27;;;18.60;78.40;;;;;;5072350;28;20239;-70
2023/06/13 05:53:23;;;;;;;3.97;3.57;;;18.60;77.10;;;;;;5072410;28;20192;-70
2023/06/13 05:55:49;;;;;;;6.97;4.10;;;18.60;77.50;;;;;;5072445;28;20400;-70
2023/06/13 05:58:14;;;;;;;6.47;3.70;;;18.60;76.40;;;;;;5072022;28;20162;-70
2023/06/13 06:00:40;;;;;;;3.67;3.37;;;18.60;75.20;;;;;;5072899;28;20508;-70
2023/06/13 06:03:06;;;;;;;3.93;3.50;;;18.70;74.80;;;;;;5072463;28;20185;-70
2023/06/13 06:05:32;;;;;;;5.10;3.77;;;18.80;74.50;;;;;;5072246;28;20511;-70
2023/06/13 06:07:57;;;;;;;6.80;3.47;;;18.90;73.10;;;;;;5072271;28;20174;-69
2023/06/13 06:10:23;;;;;;;4.10;3.70;;;18.90;73.80;;;;;;5073163;28;20239;-69
2023/06/13 06:12:48;;;;;;;5.93;4.00;;;18.70;72.90;;;;;;5071855;28;20190;-69
2023/06/13 06:15:14;;;;;;;3.80;3.50;;;18.60;72.30;;;;;;5071997;28;20170;-70
2023/06/13 06:17:40;;;;;;;4.83;3.20;;;18.70;72.70;;;;;;5072435;28;20257;-70
2023/06/13 06:20:06;;;;;;;6.97;3.77;;;18.80;72.60;;;;;;5072410;28;20162;-69
2023/06/13 06:22:32;;;;;;;4.40;4.00;;;18.80;73.00;;;;;;5071891;28;20198;-69
2023/06/13 06:24:57;;;;;;;3.80;3.50;;;18.90;72.40;;;;;;5071976;28;20407;-69
2023/06/13 06:27:23;;;;;;;6.43;4.20;;;19.10;72.30;;;;;;5072005;28;20194;-68
2023/06/13 06:29:48;;;;;;;3.40;3.10;;;19.20;70.90;;;;;;5073857;28;20260;-71
2023/06/13 06:32:14;;;;;;;6.10;3.70;;;19.30;71.40;;;;;;5075405;28;20206;-69
2023/06/13 06:34:40;;;;;;;4.70;3.83;;;19.30;70.30;;;;;;5075248;28;20285;-71
2023/06/13 06:37:07;;;;;;;4.30;3.90;;;19.30;71.60;;;;;;5075888;28;20483;-71
2023/06/13 06:39:34;;;;;;;4.30;3.90;;;19.10;69.70;;;;;;5075713;28;20170;-69
2023/06/13 06:41:59;;;;;;;6.10;3.83;;;19.10;69.90;;;;;;5075159;28;20428;-68
2023/06/13 06:44:25;;;;;;;8.43;3.60;;;19.10;69.40;;;;;;5057050;28;20774;-68
2023/06/13 06:46:51;;;;;;;4.17;3.70;;;19.20;69.10;;;;;;5075792;28;20170;-70
2023/06/13 06:49:17;;;;;;;4.47;3.80;;;19.30;69.70;;;;;;5075057;28;20182;-69
2023/06/13 06:51:43;;;;;;;4.70;3.93;;;19.30;69.00;;;;;;5075278;28;20285;-70
2023/06/13 06:54:08;;;;;;;4.80;4.17;;;19.40;68.90;;;;;;5075395;28;20432;-70
2023/06/13 06:56:34;;;;;;;5.10;3.43;;;19.40;68.20;;;;;;5075274;28;20220;-70
2023/06/13 06:58:59;;;;;;;5.10;3.80;;;19.30;68.20;;;;;;5074593;28;20230;-71
2023/06/13 07:01:25;;;;;;;4.70;3.60;;;19.30;68.20;;;;;;5075166;28;20181;-70
2023/06/13 07:03:51;;;;;;;4.00;3.33;;;19.30;68.10;;;;;;5075237;28;20170;-70
2023/06/13 07:06:16;;;;;;;5.80;4.03;;;19.50;67.70;;;;;;5075781;28;20166;-69
2023/06/13 07:08:42;;;;;;;5.17;3.80;;;19.50;67.70;;;;;;5075038;28;20174;-69
2023/06/13 07:11:07;;;;;;;5.43;4.00;;;19.60;68.10;;;;;;5075366;28;20243;-69
2023/06/13 07:13:33;;;;;;;9.70;3.90;;;19.50;67.30;;;;;;5074648;28;20170;-69
2023/06/13 07:16:01;;;;;;;5.77;4.00;;;19.60;67.50;;;;;;5075156;28;20172;-69
2023/06/13 07:18:29;;;;;;;4.07;3.30;;;19.70;66.90;;;;;;5074543;28;20596;-69
2023/06/13 07:20:55;;;;;;;3.50;3.20;;;19.70;66.70;;;;;;5056704;28;20477;-69
2023/06/13 07:23:21;;;;;;;6.00;3.20;;;19.60;66.30;;;;;;5074786;28;20440;-69
2023/06/13 07:25:46;;;;;;;4.90;4.20;;;19.70;66.60;;;;;;5056688;28;20265;-70
2023/06/13 07:28:12;;;;;;;5.57;3.87;;;19.80;66.40;;;;;;5073596;28;20182;-69
2023/06/13 07:30:37;;;;;;;7.53;3.90;;;19.80;66.50;;;;;;5074339;28;20634;-69
2023/06/13 07:33:03;;;;;;;5.43;3.40;;;19.90;65.50;;;;;;5074492;28;20270;-69
2023/06/13 07:35:29;;;;;;;4.73;3.73;;;20.10;67.50;;;;;;5074568;28;20521;-70
2023/06/13 07:37:55;;;;;;;5.40;4.30;;;20.40;65.80;;;;;;5075087;28;20163;-70
2023/06/13 07:40:21;;;;;;;5.57;4.03;;;20.30;64.90;;;;;;5073605;28;20174;-70
2023/06/13 07:42:48;;;;;;;5.03;3.67;;;20.30;64.80;;;;;;5056170;28;20668;-70
2023/06/13 07:45:14;;;;;;;4.00;3.50;;;20.20;64.80;;;;;;5074136;28;20963;-70
2023/06/13 07:47:40;;;;;;;6.60;3.67;;;20.40;65.20;;;;;;5074952;28;20487;-70
2023/06/13 07:50:06;;;;;;;4.33;3.93;;;20.50;64.40;;;;;;5074195;28;20172;-70
2023/06/13 07:52:32;;;;;;;4.33;3.93;;;20.40;64.50;;;;;;5074397;28;20197;-71
2023/06/13 07:54:57;;;;;;;8.47;3.83;;;20.50;64.30;;;;;;5074700;28;20400;-70
2023/06/13 07:57:23;;;;;;;5.60;3.57;;;20.40;63.10;;;;;;5074552;28;20166;-71
2023/06/13 07:59:48;;;;;;;5.00;3.60;;;20.40;62.30;;;;;;5074299;28;20619;-70
2023/06/13 08:02:14;;;;;;;9.33;3.73;;;20.40;63.90;;;;;;5074189;28;20545;-70
2023/06/13 08:04:40;;;;;;;4.23;3.83;;;20.50;62.60;;;;;;5074506;28;20629;-69
2023/06/13 08:07:05;;;;;;;6.43;3.80;;;20.60;63.70;;;;;;5074136;28;20193;-69
2023/06/13 08:09:31;;;;;;;4.00;3.57;;;20.70;62.90;;;;;;5074156;28;20221;-70
2023/06/13 08:11:59;;;;;;;5.00;3.60;;;20.70;60.10;;;;;;5073947;28;20730;-70
2023/06/13 08:14:25;;;;;;;3.93;3.43;;;20.90;60.50;;;;;;5073833;28;20189;-70
2023/06/13 08:16:51;;;;;;;4.80;3.47;;;21.10;59.50;;;;;;5073875;28;20929;-70
2023/06/13 08:19:16;;;;;;;5.50;3.93;;;21.20;60.00;;;;;;5073778;28;20162;-70
2023/06/13 08:21:43;;;;;;;7.13;3.57;;;21.10;58.90;;;;;;5056293;28;20699;-70
2023/06/13 08:24:08;;;;;;;4.03;3.57;;;21.10;59.50;;;;;;5073781;28;20178;-70
2023/06/13 08:26:34;;;;;;;3.63;3.20;;;21.10;59.00;;;;;;5073830;28;20754;-70
2023/06/13 08:29:03;;;;;;;4.57;3.90;;;21.00;59.40;;;;;;5072563;28;20178;-71
2023/06/13 08:31:31;;;;;;;8.97;3.57;;;21.00;59.70;;;;;;5073330;28;20220;-70
2023/06/13 08:33:58;;;;;;;4.40;3.40;;;21.20;60.00;;;;;;5073814;28;20434;-70
2023/06/13 08:36:24;;;;;;;6.20;4.67;;;21.30;60.90;;;;;;5073969;28;20411;-70
2023/06/13 08:38:50;;;;;;;5.40;4.27;;;21.50;60.30;;;;;;5073457;28;20925;-70
2023/06/13 08:41:15;;;;;;;4.47;4.07;;;21.60;60.50;;;;;;5072959;28;20420;-70
2023/06/13 08:43:45;;;;;;;8.13;4.13;;;21.50;60.50;;;;;;5073041;28;20174;-69
2023/06/13 08:46:11;;;;;;;9.83;3.60;;;21.50;61.10;;;;;;5072887;28;20162;-70
2023/06/13 08:48:37;;;;;;;5.93;4.40;;;21.50;61.10;;;;;;5073312;28;20432;-69
2023/06/13 08:51:06;;;;;;;4.17;3.83;;;21.60;60.50;;;;;;5073049;28;20456;-69
2023/06/13 08:53:32;;;;;;;4.10;3.70;;;21.90;60.00;;;;;;5073449;28;20424;-69
2023/06/13 08:56:04;;;;;;;4.10;3.17;;;22.00;57.60;;;;;;5073565;28;20400;-69
2023/06/13 08:58:35;;;;;;;10.73;4.00;;;21.90;57.60;;;;;;5072940;28;20755;-68
2023/06/13 09:01:02;;;;;;;7.43;5.10;;;22.00;58.40;;;;;;5073341;28;20752;-69
2023/06/13 09:03:29;;;;;;;4.27;3.87;;;22.20;58.50;;;;;;5073135;28;20981;-70
2023/06/13 09:05:56;;;;;;;4.40;4.00;;;22.10;57.60;;;;;;5073413;28;20477;-69
2023/06/13 09:08:23;;;;;;;5.00;3.90;;;22.00;57.80;;;;;;5073376;28;20400;-69
2023/06/13 09:10:50;;;;;;;6.00;3.50;;;22.00;57.40;;;;;;5072888;28;20451;-69
2023/06/13 09:13:16;;;;;;;4.70;3.83;;;22.10;58.30;;;;;;5072765;28;20938;-68
2023/06/13 09:15:44;;;;;;;5.73;4.07;;;22.00;57.30;;;;;;5072524;28;20439;-71
2023/06/13 09:18:11;;;;;;;6.13;4.33;;;22.00;56.70;;;;;;5072523;28;20461;-69
2023/06/13 09:20:36;;;;;;;3.83;3.53;;;22.20;57.00;;;;;;5072972;28;20401;-69
2023/06/13 09:23:02;;;;;;;6.30;4.70;;;22.40;57.30;;;;;;5072866;28;20431;-70
2023/06/13 09:25:31;;;;;;;7.57;4.37;;;22.50;58.40;;;;;;5073352;28;20166;-70
2023/06/13 09:27:56;;;;;;;5.30;4.80;;;22.50;56.80;;;;;;5072310;28;20416;-70
2023/06/13 09:30:22;;;;;;;5.80;4.07;;;22.50;58.40;;;;;;5072198;28;20945;-68
2023/06/13 09:32:51;;;;;;;3.83;3.53;;;22.60;57.90;;;;;;5072726;28;20747;-68
2023/06/13 09:35:17;;;;;;;5.00;3.87;;;22.70;56.60;;;;;;5072800;28;20216;-68
2023/06/13 09:37:44;;;;;;;5.87;4.60;;;22.90;56.80;;;;;;5072851;28;20499;-70
2023/06/13 09:40:10;;;;;;;5.00;4.50;;;23.00;55.40;;;;;;5072940;28;20424;-70
2023/06/13 09:42:36;;;;;;;4.90;3.90;;;23.00;54.80;;;;;;5072615;28;20416;-71
2023/06/13 09:45:08;;;;;;;6.20;3.90;;;23.00;54.80;;;;;;5072478;28;20898;-69
2023/06/13 09:47:35;;;;;;;4.80;4.30;;;23.00;54.60;;;;;;5072927;28;20154;-70
2023/06/13 09:50:01;;;;;;;3.87;3.30;;;23.00;54.50;;;;;;5071618;28;20424;-70
2023/06/13 09:52:32;;;;;;;4.47;3.53;;;23.00;54.30;;;;;;5072601;28;20420;-69
2023/06/13 09:54:58;;;;;;;4.03;3.63;;;23.10;54.80;;;;;;5073003;28;20480;-69
2023/06/13 09:57:24;;;;;;;9.33;4.23;;;23.20;53.90;;;;;;5054724;28;20466;-69
2023/06/13 09:59:51;;;;;;;10.60;3.77;;;23.40;52.70;;;;;;5054222;28;20173;-69
2023/06/13 10:02:20;;;;;;;6.00;3.83;;;23.50;52.30;;;;;;5072333;28;20420;-69
2023/06/13 10:04:50;;;;;;;5.60;3.63;;;23.40;52.30;;;;;;5057287;28;20424;-69
2023/06/13 10:07:16;;;;;;;5.67;4.40;;;23.50;52.20;;;;;;5076693;28;20409;-70
2023/06/13 10:09:41;;;;;;;4.90;3.83;;;23.50;52.20;;;;;;5076652;28;20408;-70
2023/06/13 10:12:18;;;;;;;4.87;4.30;;;23.30;51.30;;;;;;5076279;28;20992;-70
2023/06/13 10:14:47;;;;;;;8.50;3.87;;;23.40;51.40;;;;;;5076536;28;20161;-70
2023/06/13 10:17:17;;;;;;;6.90;4.00;;;23.50;52.20;;;;;;5076344;28;20415;-70
2023/06/13 10:19:43;;;;;;;4.43;4.00;;;23.70;52.50;;;;;;5076199;28;20491;-69
2023/06/13 10:22:10;;;;;;;5.80;3.70;;;23.70;52.60;;;;;;5076196;28;20431;-69
2023/06/13 10:24:37;;;;;;;7.17;4.50;;;23.80;51.70;;;;;;5076063;28;20412;-69
2023/06/13 10:27:05;;;;;;;3.87;3.40;;;23.50;51.60;;;;;;5076419;28;20404;-70
2023/06/13 10:30:02;;;;;;;4.50;3.50;;;23.70;51.70;;;;;;5056944;28;20864;-69
2023/06/13 10:32:48;;;;;;;10.97;4.70;;;24.20;52.30;;;;;;5069039;28;20451;-69
2023/06/13 10:35:39;;;;;;;5.10;3.73;;;24.20;51.20;;;;;;5076486;28;20469;-69
2023/06/13 10:38:38;;;;;;;4.87;4.07;;;24.00;50.30;;;;;;5076274;28;20400;-70
2023/06/13 10:41:23;;;;;;;12.10;3.97;;;24.10;51.40;;;;;;5076126;28;20384;-70
2023/06/13 10:44:00;;;;;;;4.73;4.10;;;24.20;51.20;;;;;;5075771;28;20808;-70
2023/06/13 10:46:25;;;;;;;4.60;4.20;;;24.50;49.80;;;;;;5076189;28;20372;-70
2023/06/13 10:48:52;;;;;;;4.83;4.10;;;24.40;49.50;;;;;;5075518;28;20402;-70
2023/06/13 10:51:22;;;;;;;6.97;4.23;;;24.60;49.90;;;;;;5075669;28;20194;-70
2023/06/13 10:54:07;;;;;;;5.27;4.30;;;24.50;50.20;;;;;;5075698;28;20407;-70
2023/06/13 10:56:34;;;;;;;7.03;3.50;;;24.70;50.40;;;;;;5075992;28;20404;-69
2023/06/13 10:59:04;;;;;;;5.73;4.47;;;24.80;49.50;;;;;;5075165;28;20416;-68
2023/06/13 11:01:32;;;;;;;4.50;4.10;;;24.80;48.70;;;;;;5075313;28;20458;-70
2023/06/13 11:04:15;;;;;;;5.20;4.33;;;24.90;49.60;;;;;;5075913;28;20892;-70
2023/06/13 11:06:46;;;;;;;8.63;4.20;;;24.80;49.70;;;;;;5075808;28;20381;-70
2023/06/13 11:09:21;;;;;;;7.70;4.10;;;25.00;49.20;;;;;;5075992;28;20433;-70
2023/06/13 11:11:55;;;;;;;5.07;3.90;;;24.60;49.00;;;;;;5076173;28;20507;-70
2023/06/13 11:14:26;;;;;;;5.63;3.50;;;24.70;49.90;;;;;;5074220;28;20388;-71
2023/06/13 11:16:53;;;;;;;6.00;4.23;;;25.10;49.70;;;;;;5075738;28;20463;-70
2023/06/13 11:19:23;;;;;;;4.77;4.00;;;25.40;48.90;;;;;;5075729;28;20401;-71
2023/06/13 11:21:58;;;;;;;4.00;3.60;;;25.60;48.00;;;;;;5075584;28;20424;-70
2023/06/13 11:24:23;;;;;;;8.20;4.73;;;25.10;46.60;;;;;;5075000;28;20429;-70
2023/06/13 11:26:49;;;;;;;6.10;3.77;;;25.30;46.90;;;;;;5075100;28;20404;-71
2023/06/13 11:29:15;;;;;;;4.30;3.83;;;25.30;45.90;;;;;;5056095;28;20226;-70
2023/06/13 11:31:42;;;;;;;3.80;3.27;;;25.90;45.30;;;;;;5090718;22;20194;-67
2023/06/13 11:34:18;;;;;;;4.27;3.87;;;27.10;44.50;;;;;;5113032;28;20491;-68
2023/06/13 11:36:45;;;;;;;5.10;3.83;;;28.60;42.20;;;;;;5114568;28;20398;-68
2023/06/13 11:39:26;;;;;;;6.00;3.30;;;29.70;40.70;;;;;;5114524;28;20771;-69
2023/06/13 11:41:52;;;;;;;4.10;3.80;;;29.90;39.60;;;;;;5114384;28;20430;-68
2023/06/13 11:44:19;;;;;;;4.87;3.60;;;29.90;39.00;;;;;;5113785;28;20390;-69
2023/06/13 11:46:46;;;;;;;3.80;3.50;;;29.90;39.40;;;;;;5114434;28;20173;-69
2023/06/13 11:49:15;;;;;;;4.10;3.50;;;30.90;39.50;;;;;;5114223;28;20391;-67
2023/06/13 11:51:42;;;;;;;4.70;3.80;;;32.00;36.80;;;;;;5114002;28;20482;-68
2023/06/13 11:54:08;;;;;;;4.40;4.00;;;31.30;36.30;;;;;;5114371;28;20417;-67
2023/06/13 11:56:36;;;;;;;6.97;4.27;;;30.70;37.10;;;;;;5114228;28;20914;-68
2023/06/13 11:59:20;;;;;;;4.70;3.90;;;30.60;37.70;;;;;;5113541;28;20425;-68
2023/06/13 12:01:52;;;;;;;4.37;3.97;;;31.30;37.30;;;;;;5114031;28;20486;-68
2023/06/13 12:04:29;;;;;;;6.50;3.83;;;30.80;38.30;;;;;;5114148;28;20403;-68
2023/06/13 12:06:55;;;;;;;6.57;3.60;;;30.50;38.90;;;;;;5113957;28;20387;-67
2023/06/13 12:09:21;;;;;;;5.07;4.30;;;29.40;38.90;;;;;;5113705;28;20755;-67
2023/06/13 12:11:47;;;;;;;3.93;3.10;;;29.50;39.40;;;;;;5113653;28;20211;-68
2023/06/13 12:14:13;;;;;;;6.80;3.90;;;31.10;37.80;;;;;;5113305;28;20483;-68
2023/06/13 12:16:39;;;;;;;4.10;3.80;;;30.90;36.60;;;;;;5113824;28;20268;-68
2023/06/13 12:19:07;;;;;;;5.50;3.90;;;31.30;37.70;;;;;;5113843;28;20394;-68
2023/06/13 12:21:35;;;;;;;6.97;4.10;;;31.20;37.80;;;;;;5113277;28;20459;-68
2023/06/13 12:24:06;;;;;;;4.67;4.00;;;31.70;36.80;;;;;;5113190;28;20523;-67
2023/06/13 12:26:33;;;;;;;6.97;4.07;;;31.50;37.10;;;;;;5112576;28;20417;-68
2023/06/13 12:29:07;;;;;;;6.67;3.70;;;31.40;36.40;;;;;;5112044;28;20432;-68
2023/06/13 12:31:41;;;;;;;3.90;3.50;;;32.50;35.90;;;;;;5113515;28;20426;-68
2023/06/13 12:34:16;;;;;;;4.03;3.73;;;32.70;34.60;;;;;;5094790;28;20411;-67
2023/06/13 12:36:44;;;;;;;4.07;3.70;;;34.20;33.60;;;;;;5113745;28;20383;-68
2023/06/13 12:39:14;;;;;;;6.30;4.40;;;33.50;34.00;;;;;;5113222;28;20762;-67
2023/06/13 12:41:48;;;;;;;5.57;4.13;;;32.60;33.60;;;;;;5113245;28;20452;-70
2023/06/13 12:44:14;;;;;;;6.53;4.03;;;32.40;34.90;;;;;;5112640;28;20893;-68
2023/06/13 12:46:40;;;;;;;5.43;4.47;;;32.20;34.80;;;;;;5113308;28;20406;-68
2023/06/13 12:49:10;;;;;;;5.40;3.43;;;33.10;34.20;;;;;;5112325;28;20415;-68